Peotone Weather
Station Historical Data
Daily Summary for February 13, 2018 Units:  Metric    English   Both
« Previous Day
Next Day »
Daily Weekly Monthly Yearly Custom
  High: Low: Average:
Temperature: 0 °C -11.8 °C -6.1 °C
Dew Point: -3.4 °C -13.4 °C -8.5 °C
Humidity: 92% 68% 83%
Wind Speed: 24km/h 0km/h 5.5km/h
Wind Gust: 24km/h - -
Wind- - East
Pressure: 1042.2 hPa 1025.6 hPa -
Precipitation: 0 mm    
Historical Graphs
 
 
Tabular Data for February 13, 2018
Time Temperature Dew Point Pressure Wind Wind Speed Wind Gust Humidity Rainfall Rate (Hourly) solar Conditions
00:00 -9.7 °C -11.1 °C 1042.2 hPa ENE 5.6 km/h 13 km/h 90% 0 mm 0.00 W/m2
00:03 -9.7 °C -11.1 °C 1042.2 hPa ENE 5.5 km/h 13 km/h 90% 0 mm 0.00 W/m2
00:05 -9.8 °C -11.1 °C 1042.2 hPa Calm   13 km/h 90% 0 mm 0.00 W/m2
00:08 -9.7 °C -11.1 °C 1042.2 hPa ENE 3.7 km/h 9.3 km/h 90% 0 mm 0.00 W/m2
00:10 -9.8 °C -11.1 °C 1042.2 hPa ENE 5.6 km/h 9.3 km/h 90% 0 mm 0.00 W/m2
00:13 -9.8 °C -11.2 °C 1042.2 hPa ENE 1.8 km/h 5.5 km/h 90% 0 mm 0.00 W/m2
00:15 -9.9 °C -11.2 °C 1042.2 hPa ENE 1.8 km/h 9.3 km/h 90% 0 mm 0.00 W/m2
00:18 -10 °C -11.3 °C 1042.2 hPa ENE 3.7 km/h 7.4 km/h 90% 0 mm 0.00 W/m2
00:20 -10 °C -11.3 °C 1042.2 hPa ENE 1.8 km/h 7.4 km/h 90% 0 mm 0.00 W/m2
00:23 -10 °C -11.3 °C 1042.2 hPa ENE 7.4 km/h 7.4 km/h 90% 0 mm 0.00 W/m2
00:25 -10 °C -11.3 °C 1042.2 hPa ENE 5.6 km/h 7.4 km/h 90% 0 mm 0.00 W/m2
00:28 -9.9 °C -11.3 °C 1042.2 hPa ENE 5.5 km/h 7.4 km/h 90% 0 mm 0.00 W/m2
00:30 -9.9 °C -11.3 °C 1042.2 hPa ENE 3.7 km/h 9.3 km/h 90% 0 mm 0.00 W/m2
00:33 -9.9 °C -11.3 °C 1042.2 hPa ENE 5.5 km/h 9.3 km/h 90% 0 mm 0.00 W/m2
00:35 -9.9 °C -11.2 °C 1042.2 hPa ENE 3.7 km/h 9.3 km/h 90% 0 mm 0.00 W/m2
00:38 -9.9 °C -11.2 °C 1042.2 hPa ENE 1.8 km/h 7.4 km/h 90% 0 mm 0.00 W/m2
00:40 -9.9 °C -11.3 °C 1042.2 hPa ENE 3.7 km/h 7.4 km/h 90% 0 mm 0.00 W/m2
00:43 -10 °C -11.3 °C 1042.2 hPa ENE 5.5 km/h 5.5 km/h 90% 0 mm 0.00 W/m2
00:45 -9.9 °C -11.2 °C 1042.2 hPa ENE 5.6 km/h 9.3 km/h 90% 0 mm 0.00 W/m2
00:48 -9.8 °C -11.2 °C 1042.2 hPa ENE 1.8 km/h 9.3 km/h 90% 0 mm 0.00 W/m2
00:50 -9.8 °C -11.2 °C 1042.2 hPa ENE 3.7 km/h 9.3 km/h 90% 0 mm 0.00 W/m2
00:53 -9.8 °C -11.1 °C 1042.2 hPa ENE 7.4 km/h 7.4 km/h 90% 0 mm 0.00 W/m2
00:55 -9.8 °C -11.1 °C 1042.2 hPa ENE 5.6 km/h 9.3 km/h 90% 0 mm 0.00 W/m2
00:58 -9.7 °C -11.1 °C 1042.2 hPa ENE 1.8 km/h 7.4 km/h 90% 0 mm 0.00 W/m2
01:00 -9.7 °C -11.1 °C 1042.2 hPa ENE 5.6 km/h 7.4 km/h 90% 0 mm 0.00 W/m2
01:03 -9.8 °C -11.1 °C 1042.2 hPa ENE 1.8 km/h 7.4 km/h 90% 0 mm 0.00 W/m2
01:05 -9.8 °C -11.1 °C 1042.2 hPa ENE 5.6 km/h 7.4 km/h 90% 0 mm 0.00 W/m2
01:09 -9.7 °C -11.1 °C 1042.2 hPa ENE 3.7 km/h 9.3 km/h 90% 0 mm 0.00 W/m2
01:10 -9.7 °C -11.1 °C 1042.2 hPa ENE 3.7 km/h 9.3 km/h 90% 0 mm 0.00 W/m2
01:14 -9.8 °C -11.1 °C 1042.2 hPa ENE 7.4 km/h 7.4 km/h 90% 0 mm 0.00 W/m2
01:15 -9.8 °C -11.2 °C 1042.2 hPa ENE 5.6 km/h 9.3 km/h 89% 0 mm 0.00 W/m2
01:19 -9.8 °C -11.1 °C 1042.2 hPa ENE 3.7 km/h 5.5 km/h 90% 0 mm 0.00 W/m2
01:20 -9.8 °C -11.1 °C 1042.2 hPa ENE 1.8 km/h 5.6 km/h 90% 0 mm 0.00 W/m2
01:24 -9.8 °C -11.3 °C 1041.9 hPa Calm   5.5 km/h 89% 0 mm 0.00 W/m2
01:25 -9.8 °C -11.3 °C 1041.9 hPa ENE 1.8 km/h 5.6 km/h 89% 0 mm 0.00 W/m2
01:29 -9.9 °C -11.4 °C 1041.9 hPa NE 3.7 km/h 9.3 km/h 89% 0 mm 0.00 W/m2
01:30 -9.9 °C -11.4 °C 1041.9 hPa ENE 3.7 km/h 9.3 km/h 89% 0 mm 0.00 W/m2
01:34 -10.1 °C -11.5 °C 1041.5 hPa ENE 5.5 km/h 9.3 km/h 89% 0 mm 0.00 W/m2
01:35 -10.1 °C -11.6 °C 1041.5 hPa ENE 3.7 km/h 9.3 km/h 89% 0 mm 0.00 W/m2
01:39 -10.2 °C -11.7 °C 1041.5 hPa ENE 5.5 km/h 13 km/h 89% 0 mm 0.00 W/m2
01:40 -10.2 °C -11.7 °C 1041.5 hPa ENE 7.4 km/h 13 km/h 89% 0 mm 0.00 W/m2
01:44 -10.2 °C -11.7 °C 1041.5 hPa ENE 9.3 km/h 9.3 km/h 89% 0 mm 0.00 W/m2
01:45 -10.2 °C -11.7 °C 1041.5 hPa ENE 1.8 km/h 9.3 km/h 89% 0 mm 0.00 W/m2
01:49 -10.3 °C -11.7 °C 1041.5 hPa ENE 3.7 km/h 9.3 km/h 89% 0 mm 0.00 W/m2
01:50 -10.3 °C -11.7 °C 1041.5 hPa ENE 5.6 km/h 9.3 km/h 89% 0 mm 0.00 W/m2
01:54 -10.4 °C -11.8 °C 1041.5 hPa ENE 5.5 km/h 13 km/h 89% 0 mm 0.00 W/m2
01:55 -10.4 °C -11.8 °C 1041.5 hPa ENE 5.6 km/h 13 km/h 89% 0 mm 0.00 W/m2
01:59 -10.4 °C -11.9 °C 1041.2 hPa ENE 3.7 km/h 7.4 km/h 89% 0 mm 0.00 W/m2
02:00 -10.4 °C -11.9 °C 1041.2 hPa ENE 1.8 km/h 7.4 km/h 89% 0 mm 0.00 W/m2
02:05 -10.2 °C -11.7 °C 1041.2 hPa ENE 3.7 km/h 14.8 km/h 89% 0 mm 0.00 W/m2
02:10 -10.1 °C -11.5 °C 1041.2 hPa NE 7.4 km/h 9.3 km/h 89% 0 mm 0.00 W/m2
02:15 -10.2 °C -11.7 °C 1041.2 hPa NE 7.4 km/h 13 km/h 89% 0 mm 0.00 W/m2
02:20 -10.1 °C -11.6 °C 1041.2 hPa ENE 7.4 km/h 9.3 km/h 89% 0 mm 0.00 W/m2
02:25 -9.8 °C -11.2 °C 1041.2 hPa Calm   13 km/h 89% 0 mm 0.00 W/m2
02:30 -9.6 °C -11.1 °C 1041.2 hPa ENE 13 km/h 14.8 km/h 89% 0 mm 0.00 W/m2
02:35 -9.4 °C -10.9 °C 1040.9 hPa NE 1.8 km/h 20.3 km/h 89% 0 mm 0.00 W/m2
02:40 -9.7 °C -11.3 °C 1040.9 hPa ENE 5.5 km/h 9.3 km/h 88% 0 mm 0.00 W/m2
02:45 -9.8 °C -11.4 °C 1040.9 hPa East 9.3 km/h 9.3 km/h 88% 0 mm 0.00 W/m2
02:50 -10.2 °C -11.9 °C 1040.5 hPa East 3.7 km/h 13 km/h 87% 0 mm 0.00 W/m2
02:51 -10.2 °C -11.9 °C 1040.5 hPa East 5.5 km/h 9.3 km/h 87% 0 mm 0.00 W/m2
02:55 -10.2 °C -11.8 °C 1040.5 hPa ENE 5.6 km/h 13 km/h 88% 0 mm 0.00 W/m2
02:56 -10.1 °C -11.7 °C 1040.5 hPa ENE 3.7 km/h 9.3 km/h 88% 0 mm 0.00 W/m2
03:01 -9.9 °C -11.6 °C 1040.5 hPa East 3.7 km/h 5.5 km/h 88% 0 mm 0.00 W/m2
03:06 -10.1 °C -11.8 °C 1040.5 hPa ENE 9.3 km/h 9.3 km/h 87% 0 mm 0.00 W/m2
03:11 -9.9 °C -11.6 °C 1040.5 hPa ENE 5.5 km/h 7.4 km/h 88% 0 mm 0.00 W/m2
03:16 -9.9 °C -11.5 °C 1040.5 hPa Calm   11.1 km/h 88% 0 mm 0.00 W/m2
03:21 -10.1 °C -11.9 °C 1040.5 hPa ENE 3.7 km/h 3.7 km/h 87% 0 mm 0.00 W/m2
03:26 -10.4 °C -12.2 °C 1040.5 hPa ENE 1.8 km/h 3.7 km/h 87% 0 mm 0.00 W/m2
03:31 -10.7 °C -12.4 °C 1040.9 hPa ENE 1.8 km/h 5.5 km/h 87% 0 mm 0.00 W/m2
03:36 -10.7 °C -12.3 °C 1040.9 hPa ENE 1.8 km/h 5.5 km/h 88% 0 mm 0.00 W/m2
03:41 -11.1 °C -12.8 °C 1040.9 hPa ENE 1.8 km/h 1.8 km/h 87% 0 mm 0.00 W/m2
03:46 -11.4 °C -13.1 °C 1040.9 hPa ENE 1.8 km/h 3.7 km/h 87% 0 mm 0.00 W/m2
03:52 -11.5 °C -13.1 °C 1040.9 hPa Calm   1.8 km/h 88% 0 mm 0.00 W/m2
03:57 -11.6 °C -13.2 °C 1040.9 hPa Calm   5.5 km/h 88% 0 mm 0.00 W/m2
04:02 -11.8 °C -13.4 °C 1040.9 hPa ENE 1.8 km/h 1.8 km/h 88% 0 mm 0.00 W/m2
04:07 -11.8 °C -13.2 °C 1040.9 hPa ENE 1.8 km/h 5.5 km/h 89% 0 mm 0.00 W/m2
04:12 -11.6 °C -13 °C 1040.9 hPa Calm   5.5 km/h 89% 0 mm 0.00 W/m2
04:17 -11.4 °C -12.9 °C 1040.9 hPa ENE 1.8 km/h 7.4 km/h 89% 0 mm 0.00 W/m2
04:22 -11.7 °C -13.1 °C 1040.9 hPa ENE 1.8 km/h 5.5 km/h 89% 0 mm 0.00 W/m2
04:27 -11.8 °C -13.2 °C 1040.9 hPa ENE 1.8 km/h 5.5 km/h 89% 0 mm 0.00 W/m2
04:32 -11.5 °C -12.9 °C 1040.9 hPa ENE 5.5 km/h 5.5 km/h 89% 0 mm 0.00 W/m2
04:37 -11.6 °C -13.1 °C 1040.9 hPa ENE 5.5 km/h 5.5 km/h 89% 0 mm 0.00 W/m2
04:42 -11.3 °C -12.8 °C 1040.9 hPa ENE 3.7 km/h 7.4 km/h 89% 0 mm 0.00 W/m2
04:48 -10.9 °C -12.4 °C 1040.5 hPa ENE 5.5 km/h 9.3 km/h 89% 0 mm 0.00 W/m2
04:53 -10.7 °C -12.2 °C 1040.5 hPa ENE 1.8 km/h 5.5 km/h 89% 0 mm 0.00 W/m2
04:58 -10.7 °C -12.2 °C 1040.2 hPa Calm   9.3 km/h 89% 0 mm 0.00 W/m2
05:03 -10.7 °C -12.2 °C 1040.2 hPa ENE 5.5 km/h 7.4 km/h 89% 0 mm 0.00 W/m2
05:08 -10.8 °C -12.3 °C 1040.2 hPa ENE 3.7 km/h 7.4 km/h 89% 0 mm 0.00 W/m2
05:13 -10.9 °C -12.4 °C 1040.2 hPa ENE 3.7 km/h 7.4 km/h 89% 0 mm 0.00 W/m2
05:18 -10.9 °C -12.6 °C 1039.8 hPa ENE 1.8 km/h 7.4 km/h 88% 0 mm 0.00 W/m2
05:23 -11 °C -12.6 °C 1040.2 hPa ENE 3.7 km/h 7.4 km/h 88% 0 mm 0.00 W/m2
05:28 -10.9 °C -12.3 °C 1040.2 hPa NE 1.8 km/h 9.3 km/h 89% 0 mm 0.00 W/m2
05:33 -10.8 °C -12.2 °C 1040.5 hPa NE 3.7 km/h 7.4 km/h 89% 0 mm 0.00 W/m2
05:38 -10.6 °C -12.2 °C 1040.2 hPa ENE 7.4 km/h 13 km/h 88% 0 mm 0.00 W/m2
05:43 -10.5 °C -12.1 °C 1040.5 hPa ENE 5.5 km/h 13 km/h 88% 0 mm 0.00 W/m2
05:48 -10.6 °C -12.2 °C 1040.5 hPa ENE 3.7 km/h 13 km/h 88% 0 mm 0.00 W/m2
05:53 -10.6 °C -12.3 °C 1040.5 hPa ENE 5.5 km/h 5.5 km/h 87% 0 mm 0.00 W/m2
05:59 -10.5 °C -12.2 °C 1040.5 hPa ENE 3.7 km/h 7.4 km/h 87% 0 mm 0.00 W/m2
06:04 -10.4 °C -12.2 °C 1040.9 hPa ENE 3.7 km/h 7.4 km/h 87% 0 mm 0.00 W/m2
06:09 -10.5 °C -12.2 °C 1040.9 hPa ENE 5.5 km/h 5.5 km/h 87% 0 mm 0.00 W/m2
06:14 -10.6 °C -12.3 °C 1040.9 hPa ENE 3.7 km/h 9.3 km/h 87% 0 mm 0.00 W/m2
06:19 -10.8 °C -12.5 °C 1040.9 hPa Calm   5.5 km/h 87% 0 mm 0.00 W/m2
06:24 -10.9 °C -12.7 °C 1040.9 hPa ENE 1.8 km/h 5.5 km/h 87% 0 mm 0.00 W/m2
06:29 -11 °C -12.7 °C 1040.9 hPa ENE 3.7 km/h 3.7 km/h 87% 0 mm 0.00 W/m2
06:34 -11.1 °C -12.8 °C 1040.5 hPa NE 5.5 km/h 7.4 km/h 87% 0 mm 0.00 W/m2
06:39 -10.9 °C -12.5 °C 1040.5 hPa NE 3.7 km/h 7.4 km/h 88% 0 mm 0.00 W/m2
06:44 -10.8 °C -12.4 °C 1040.5 hPa NE 5.5 km/h 7.4 km/h 88% 0 mm 0.00 W/m2
06:50 -10.6 °C -12.2 °C 1040.9 hPa Calm   7.4 km/h 88% 0 mm 0.00 W/m2
06:55 -10.6 °C -12.2 °C 1040.9 hPa NE 3.7 km/h 9.3 km/h 88% 0 mm 5.00 W/m2
07:00 -10.3 °C -11.9 °C 1040.9 hPa NE 1.8 km/h 7.4 km/h 88% 0 mm 11.00 W/m2
07:05 -10 °C -11.6 °C 1040.5 hPa NE 1.8 km/h 9.3 km/h 88% 0 mm 14.00 W/m2
07:10 -9.8 °C -11.4 °C 1040.5 hPa NE 3.7 km/h 9.3 km/h 88% 0 mm 19.00 W/m2
07:15 -9.6 °C -11.2 °C 1040.5 hPa NE 5.5 km/h 7.4 km/h 88% 0 mm 25.00 W/m2
07:20 -9.6 °C -11.4 °C 1040.9 hPa ENE 1.8 km/h 9.3 km/h 87% 0 mm 35.00 W/m2
07:25 -9.6 °C -11.5 °C 1040.9 hPa ENE 1.8 km/h 7.4 km/h 86% 0 mm 40.00 W/m2
07:30 -9.4 °C -11.2 °C 1040.9 hPa ENE 1.8 km/h 7.4 km/h 87% 0 mm 47.00 W/m2
07:35 -9.3 °C -11.2 °C 1040.9 hPa Calm   9.3 km/h 86% 0 mm 53.00 W/m2
07:40 -9.1 °C -10.9 °C 1040.9 hPa ENE 3.7 km/h 5.5 km/h 86% 0 mm 79.00 W/m2
07:45 -8.8 °C -10.9 °C 1040.9 hPa ENE 1.8 km/h 1.8 km/h 85% 0 mm 109.00 W/m2
07:50 -8.6 °C -10.7 °C 1040.5 hPa ENE 1.8 km/h 3.7 km/h 85% 0 mm 97.00 W/m2
07:55 -8.5 °C -10.7 °C 1040.2 hPa ENE 5.5 km/h 13 km/h 84% 0 mm 102.00 W/m2
08:00 -8.3 °C -10.6 °C 1040.2 hPa ENE 3.7 km/h 5.5 km/h 84% 0 mm 104.00 W/m2
08:05 -8.2 °C -10.4 °C 1040.2 hPa NE 7.4 km/h 7.4 km/h 84% 0 mm 95.00 W/m2
08:11 -8.2 °C -10.6 °C 1039.8 hPa ENE 7.4 km/h 9.3 km/h 83% 0 mm 88.00 W/m2
08:16 -8.1 °C -10.5 °C 1039.5 hPa ENE 3.7 km/h 13 km/h 83% 0 mm 104.00 W/m2
08:21 -8 °C -10.4 °C 1039.5 hPa ENE 5.5 km/h 9.3 km/h 83% 0 mm 118.00 W/m2
08:26 -7.7 °C -10.1 °C 1039.5 hPa East 5.5 km/h 13 km/h 83% 0 mm 132.00 W/m2
08:31 -7.6 °C -10 °C 1039.2 hPa ENE 7.4 km/h 18.5 km/h 83% 0 mm 142.00 W/m2
08:36 -7.4 °C -9.8 °C 1039.2 hPa ENE 5.5 km/h 16.6 km/h 83% 0 mm 153.00 W/m2
08:41 -7.2 °C -9.8 °C 1039.2 hPa ESE 9.3 km/h 14.8 km/h 82% 0 mm 160.00 W/m2
08:46 -6.9 °C -9.5 °C 1038.8 hPa East 9.3 km/h 9.3 km/h 82% 0 mm 165.00 W/m2
08:51 -6.8 °C -9.6 °C 1038.5 hPa East 24 km/h 24 km/h 81% 0 mm 149.00 W/m2
08:56 -6.8 °C -9.6 °C 1038.1 hPa East 13 km/h 18.5 km/h 81% 0 mm 167.00 W/m2
09:01 -6.8 °C -9.6 °C 1038.1 hPa ESE 14.8 km/h 14.8 km/h 81% 0 mm 163.00 W/m2
09:07 -6.7 °C -9.3 °C 1038.1 hPa ESE 7.4 km/h 16.6 km/h 82% 0 mm 202.00 W/m2
09:12 -6.6 °C -9.3 °C 1038.1 hPa ESE 7.4 km/h 18.5 km/h 81% 0 mm 285.00 W/m2
09:17 -6.2 °C -8.9 °C 1038.1 hPa ESE 5.5 km/h 16.6 km/h 81% 0 mm 348.00 W/m2
09:22 -6.1 °C -8.9 °C 1038.1 hPa ESE 13 km/h 13 km/h 80% 0 mm 309.00 W/m2
09:27 -6 °C -8.7 °C 1037.8 hPa ESE 14.8 km/h 14.8 km/h 81% 0 mm 294.00 W/m2
09:32 -6.1 °C -8.9 °C 1037.5 hPa ESE 5.5 km/h 20.3 km/h 80% 0 mm 267.00 W/m2
09:37 -6.1 °C -8.8 °C 1037.5 hPa ESE 20.3 km/h 20.3 km/h 81% 0 mm 264.00 W/m2
09:42 -5.9 °C -8.8 °C 1037.8 hPa ESE 16.6 km/h 18.5 km/h 80% 0 mm 290.00 W/m2
09:47 -5.7 °C -8.6 °C 1037.8 hPa SE 7.4 km/h 14.8 km/h 80% 0 mm 294.00 W/m2
09:52 -5.6 °C -8.4 °C 1037.8 hPa ESE 9.3 km/h 16.6 km/h 80% 0 mm 295.00 W/m2
09:57 -5.4 °C -8.5 °C 1037.5 hPa ESE 9.3 km/h 24 km/h 79% 0 mm 318.00 W/m2
10:02 -5.3 °C -8.6 °C 1037.5 hPa ESE 9.3 km/h 24 km/h 78% 0 mm 329.00 W/m2
10:07 -5.4 °C -8.6 °C 1037.5 hPa SE 13 km/h 20.3 km/h 78% 0 mm 323.00 W/m2
10:09 -5.4 °C -8.6 °C 1037.5 hPa East 13 km/h 22.2 km/h 78% 0 mm 348.00 W/m2
10:15 -5.3 °C -8.5 °C 1037.1 hPa ESE 13 km/h 20.3 km/h 78% 0 mm 373.00 W/m2
10:20 -5.2 °C -8.4 °C 1037.1 hPa ESE 16.6 km/h 20.3 km/h 78% 0 mm 336.00 W/m2
10:25 -5 °C -8.2 °C 1037.5 hPa ESE 14.8 km/h 20.3 km/h 78% 0 mm 255.00 W/m2
10:30 -4.8 °C -8.2 °C 1037.5 hPa ESE 9.3 km/h 20.3 km/h 77% 0 mm 246.00 W/m2
10:35 -4.9 °C -8.3 °C 1037.5 hPa ESE 13 km/h 16.6 km/h 77% 0 mm 183.00 W/m2
10:40 -4.8 °C -8.4 °C 1037.5 hPa ESE 14.8 km/h 18.5 km/h 76% 0 mm 156.00 W/m2
10:45 -5 °C -8.7 °C 1037.5 hPa ESE 9.3 km/h 16.6 km/h 75% 0 mm 141.00 W/m2
10:50 -5.1 °C -8.6 °C 1037.1 hPa ESE 9.3 km/h 14.8 km/h 76% 0 mm 174.00 W/m2
10:55 -5.2 °C -8.7 °C 1037.1 hPa ESE 1.8 km/h 13 km/h 76% 0 mm 179.00 W/m2
11:00 -5.1 °C -8.7 °C 1036.8 hPa East 9.3 km/h 14.8 km/h 76% 0 mm 323.00 W/m2
11:05 -5.1 °C -8.7 °C 1036.8 hPa ESE 5.5 km/h 9.3 km/h 76% 0 mm 429.00 W/m2
11:10 -5 °C -8.6 °C 1036.5 hPa ESE 9.3 km/h 13 km/h 76% 0 mm 624.00 W/m2
11:15 -4.6 °C -8.1 °C 1036.5 hPa ESE 7.4 km/h 9.3 km/h 76% 0 mm 742.00 W/m2
11:20 -4.3 °C -8.1 °C 1036.1 hPa ESE 5.5 km/h 5.5 km/h 75% 0 mm 575.00 W/m2
11:26 -4.3 °C -8.3 °C 1036.1 hPa ESE 5.5 km/h 5.5 km/h 74% 0 mm 504.00 W/m2
11:31 -4.4 °C -8.3 °C 1036.1 hPa ESE 1.8 km/h 3.7 km/h 74% 0 mm 441.00 W/m2
11:36 -3.9 °C -7.7 °C 1036.1 hPa SE 5.5 km/h 5.5 km/h 75% 0 mm 612.00 W/m2
11:41 -3.8 °C -7.6 °C 1036.1 hPa ESE 9.3 km/h 13 km/h 75% 0 mm 831.00 W/m2
11:46 -3.7 °C -7.8 °C 1035.8 hPa ESE 3.7 km/h 7.4 km/h 73% 0 mm 694.00 W/m2
11:51 -3.5 °C -7.4 °C 1035.4 hPa ESE 7.4 km/h 9.3 km/h 74% 0 mm 385.00 W/m2
11:56 -3.6 °C -7.7 °C 1035.4 hPa ESE 9.3 km/h 9.3 km/h 73% 0 mm 411.00 W/m2
12:01 -3.4 °C -7.3 °C 1035.4 hPa ESE 9.3 km/h 9.3 km/h 74% 0 mm 545.00 W/m2
12:06 -3.2 °C -7.2 °C 1035.4 hPa SE 3.7 km/h 5.5 km/h 74% 0 mm 411.00 W/m2
12:11 -3 °C -7 °C 1035.4 hPa ESE 13 km/h 13 km/h 74% 0 mm 397.00 W/m2
12:16 -3.1 °C -7.2 °C 1035.4 hPa ESE 1.8 km/h 9.3 km/h 73% 0 mm 385.00 W/m2
12:21 -3.2 °C -7.4 °C 1035.1 hPa ESE 1.8 km/h 9.3 km/h 73% 0 mm 364.00 W/m2
12:27 -3.2 °C -7.2 °C 1034.8 hPa ESE 5.5 km/h 9.3 km/h 74% 0 mm 410.00 W/m2
12:32 -2.9 °C -7.1 °C 1034.8 hPa ESE 1.8 km/h 5.5 km/h 73% 0 mm 455.00 W/m2
12:37 -2.9 °C -7.1 °C 1034.4 hPa ESE 1.8 km/h 9.3 km/h 73% 0 mm 388.00 W/m2
12:42 -2.7 °C -6.7 °C 1034.4 hPa ESE 5.5 km/h 5.5 km/h 74% 0 mm 362.00 W/m2
12:47 -2.1 °C -6.2 °C 1034.1 hPa ESE 5.5 km/h 7.4 km/h 73% 0 mm 417.00 W/m2
12:52 -2.2 °C -6.9 °C 1034.1 hPa ESE 9.3 km/h 9.3 km/h 70% 0 mm 315.00 W/m2
12:57 -2.2 °C -6.7 °C 1034.1 hPa ESE 5.5 km/h 9.3 km/h 71% 0 mm 357.00 W/m2
13:02 -2.2 °C -6.9 °C 1033.7 hPa Calm   9.3 km/h 70% 0 mm 316.00 W/m2
13:07 -1.9 °C -6.3 °C 1033.7 hPa ESE 1.8 km/h 7.4 km/h 72% 0 mm 334.00 W/m2
13:12 -1.7 °C -6.1 °C 1033.4 hPa ESE 7.4 km/h 13 km/h 72% 0 mm 346.00 W/m2
13:17 -1.8 °C -6.4 °C 1033.1 hPa ESE 3.7 km/h 9.3 km/h 71% 0 mm 327.00 W/m2
13:22 -1.9 °C -6.5 °C 1033.1 hPa East 1.8 km/h 7.4 km/h 71% 0 mm 304.00 W/m2
13:27 -1.4 °C -6 °C 1032.7 hPa SE 13 km/h 14.8 km/h 71% 0 mm 288.00 W/m2
13:33 -1.3 °C -6.1 °C 1032.4 hPa ESE 13 km/h 13 km/h 70% 0 mm 283.00 W/m2
13:38 -1.3 °C -6.4 °C 1032.4 hPa East 11.1 km/h 11.1 km/h 68% 0 mm 264.00 W/m2
13:43 -1.4 °C -6.2 °C 1032.1 hPa ESE 7.4 km/h 9.3 km/h 70% 0 mm 269.00 W/m2
13:48 -1.2 °C -6 °C 1031.7 hPa ESE 7.4 km/h 9.3 km/h 70% 0 mm 294.00 W/m2
13:53 -1.2 °C -6.1 °C 1031.7 hPa ESE 7.4 km/h 13 km/h 69% 0 mm 274.00 W/m2
13:58 -1.3 °C -6.2 °C 1031.4 hPa ESE 13 km/h 14.8 km/h 69% 0 mm 264.00 W/m2
14:03 -1.3 °C -6.1 °C 1031.4 hPa ESE 13 km/h 13 km/h 70% 0 mm 262.00 W/m2
14:08 -1.2 °C -6 °C 1031.4 hPa ESE 3.7 km/h 16.6 km/h 70% 0 mm 255.00 W/m2
14:13 -1.2 °C -5.9 °C 1031.4 hPa ESE 7.4 km/h 13 km/h 70% 0 mm 251.00 W/m2
14:18 -1.1 °C -6 °C 1031.4 hPa ESE 7.4 km/h 7.4 km/h 69% 0 mm 241.00 W/m2
14:23 -0.8 °C -5.4 °C 1031.4 hPa SE 11.1 km/h 11.1 km/h 71% 0 mm 255.00 W/m2
14:28 -0.6 °C -5.3 °C 1031.4 hPa ESE 9.3 km/h 13 km/h 70% 0 mm 248.00 W/m2
14:33 -0.6 °C -5.2 °C 1031.4 hPa ESE 5.5 km/h 14.8 km/h 71% 0 mm 265.00 W/m2
14:39 -0.3 °C -4.6 °C 1031 hPa SE 7.4 km/h 14.8 km/h 73% 0 mm 246.00 W/m2
14:44 -0.3 °C -4.7 °C 1031 hPa ESE 14.8 km/h 16.6 km/h 72% 0 mm 253.00 W/m2
14:49 -0.3 °C -4.6 °C 1031 hPa ESE 13 km/h 14.8 km/h 73% 0 mm 248.00 W/m2
14:54 -0.2 °C -4.1 °C 1031 hPa SE 9.3 km/h 16.6 km/h 75% 0 mm 246.00 W/m2
14:59 -0.1 °C -4.3 °C 1030.7 hPa ESE 7.4 km/h 14.8 km/h 73% 0 mm 258.00 W/m2
15:04 0 °C -4.1 °C 1030.7 hPa ESE 7.4 km/h 13 km/h 74% 0 mm 241.00 W/m2
15:10 -0.1 °C -4.4 °C 1030.7 hPa ESE 3.7 km/h 14.8 km/h 73% 0 mm 223.00 W/m2
15:15 -0.2 °C -4.4 °C 1030.7 hPa ESE 7.4 km/h 9.3 km/h 73% 0 mm 206.00 W/m2
15:20 -0.2 °C -4.2 °C 1030.4 hPa SE 1.8 km/h 9.3 km/h 74% 0 mm 195.00 W/m2
15:25 -0.1 °C -4.2 °C 1030.4 hPa SE 7.4 km/h 11.1 km/h 74% 0 mm 188.00 W/m2
15:30 -0.1 °C -4 °C 1030 hPa ESE 7.4 km/h 13 km/h 75% 0 mm 174.00 W/m2
15:35 -0.2 °C -4.1 °C 1030 hPa ESE 13 km/h 14.8 km/h 75% 0 mm 169.00 W/m2
15:40 -0.2 °C -3.9 °C 1030 hPa SE 3.7 km/h 16.6 km/h 76% 0 mm 163.00 W/m2
15:45 -0.2 °C -3.9 °C 1030 hPa ESE 5.5 km/h 14.8 km/h 76% 0 mm 162.00 W/m2
15:50 -0.2 °C -3.9 °C 1029.7 hPa ESE 7.4 km/h 7.4 km/h 76% 0 mm 148.00 W/m2
15:55 -0.3 °C -3.8 °C 1030 hPa East 9.3 km/h 13 km/h 77% 0 mm 148.00 W/m2
16:00 -0.3 °C -3.8 °C 1030 hPa ENE 3.7 km/h 3.7 km/h 77% 0 mm 142.00 W/m2
16:05 -0.3 °C -4.1 °C 1029.7 hPa East 3.7 km/h 13 km/h 76% 0 mm 139.00 W/m2
16:10 -0.4 °C -4.1 °C 1029.7 hPa ESE 5.5 km/h 7.4 km/h 76% 0 mm 134.00 W/m2
16:16 -0.6 °C -4.1 °C 1029.3 hPa ESE 9.3 km/h 13 km/h 77% 0 mm 113.00 W/m2
16:21 -0.6 °C -4.2 °C 1029.3 hPa East 9.3 km/h 9.3 km/h 77% 0 mm 95.00 W/m2
16:26 -0.7 °C -4.2 °C 1029.3 hPa East 9.3 km/h 11.1 km/h 77% 0 mm 100.00 W/m2
16:31 -0.7 °C -4.2 °C 1029.7 hPa East 1.8 km/h 1.8 km/h 77% 0 mm 93.00 W/m2
16:36 -0.6 °C -4.2 °C 1029.3 hPa East 5.5 km/h 5.5 km/h 77% 0 mm 76.00 W/m2
16:41 -0.7 °C -4.2 °C 1029.3 hPa East 5.5 km/h 5.5 km/h 77% 0 mm 69.00 W/m2
16:46 -0.7 °C -4.2 °C 1029 hPa East 3.7 km/h 3.7 km/h 77% 0 mm 62.00 W/m2
16:51 -0.8 °C -4.3 °C 1029 hPa Calm   1.8 km/h 77% 0 mm 62.00 W/m2
16:56 -0.9 °C -4.3 °C 1029 hPa East 1.8 km/h 9.3 km/h 78% 0 mm 53.00 W/m2
17:01 -0.9 °C -4.2 °C 1029 hPa Calm     78% 0 mm 37.00 W/m2
17:06 -1 °C -4.3 °C 1029 hPa East 3.7 km/h 5.5 km/h 78% 0 mm 26.00 W/m2
17:11 -1.1 °C -4.4 °C 1029 hPa Calm   5.5 km/h 78% 0 mm 16.00 W/m2
17:17 -1.4 °C -4.6 °C 1029 hPa ENE 5.5 km/h 5.5 km/h 79% 0 mm 12.00 W/m2
17:22 -1.7 °C -4.8 °C 1029.3 hPa Calm   5.5 km/h 79% 0 mm 7.00 W/m2
17:27 -1.9 °C -4.9 °C 1029.3 hPa ENE 1.8 km/h 5.5 km/h 80% 0 mm 5.00 W/m2
17:32 -2.2 °C -5.2 °C 1029 hPa Calm     80% 0 mm 0.00 W/m2
17:37 -2.2 °C -5.2 °C 1029 hPa ENE 1.8 km/h 5.5 km/h 80% 0 mm 0.00 W/m2
17:42 -2.3 °C -5.2 °C 1029 hPa Calm   5.5 km/h 81% 0 mm 0.00 W/m2
17:47 -2.5 °C -5.2 °C 1029.3 hPa ENE 3.7 km/h 7.4 km/h 82% 0 mm 0.00 W/m2
17:52 -2.6 °C -5.3 °C 1029 hPa ENE 1.8 km/h 5.5 km/h 81% 0 mm 0.00 W/m2
17:57 -2.6 °C -5.6 °C 1029 hPa ENE 1.8 km/h 3.7 km/h 80% 0 mm 0.00 W/m2
18:02 -2.5 °C -5.3 °C 1029.3 hPa Calm     81% 0 mm 0.00 W/m2
18:07 -2.6 °C -5.4 °C 1029.3 hPa Calm   1.8 km/h 81% 0 mm 0.00 W/m2
18:12 -2.7 °C -5.3 °C 1029.3 hPa Calm     82% 0 mm 0.00 W/m2
18:18 -2.9 °C -5.6 °C 1029.3 hPa Calm     82% 0 mm 0.00 W/m2
18:23 -3.2 °C -5.8 °C 1029.3 hPa ENE 3.7 km/h 3.7 km/h 82% 0 mm 0.00 W/m2
18:28 -3.4 °C -6 °C 1029 hPa ENE 5.5 km/h 5.5 km/h 82% 0 mm 0.00 W/m2
18:33 -3.6 °C -6.2 °C 1029 hPa Calm   3.7 km/h 82% 0 mm 0.00 W/m2
18:38 -3.7 °C -6.1 °C 1029 hPa Calm     83% 0 mm 0.00 W/m2
18:43 -3.8 °C -6.2 °C 1028.7 hPa ENE 5.5 km/h 5.5 km/h 83% 0 mm 0.00 W/m2
18:48 -3.8 °C -6.2 °C 1028.7 hPa ENE 3.7 km/h 5.5 km/h 83% 0 mm 0.00 W/m2
18:53 -3.8 °C -6.2 °C 1028.7 hPa ENE 3.7 km/h 5.5 km/h 83% 0 mm 0.00 W/m2
18:58 -3.8 °C -6.3 °C 1028.7 hPa ENE 3.7 km/h 5.5 km/h 83% 0 mm 0.00 W/m2
19:03 -4.1 °C -6.6 °C 1028.7 hPa ENE 5.5 km/h 5.5 km/h 83% 0 mm 0.00 W/m2
19:08 -4.3 °C -6.7 °C 1028.3 hPa ENE 3.7 km/h 7.4 km/h 83% 0 mm 0.00 W/m2
19:13 -4.4 °C -6.9 °C 1028.3 hPa ENE 1.8 km/h 3.7 km/h 83% 0 mm 0.00 W/m2
19:18 -4.7 °C -6.9 °C 1028.3 hPa ENE 5.5 km/h 9.3 km/h 84% 0 mm 0.00 W/m2
19:24 -4.8 °C -7.1 °C 1028.3 hPa ENE 5.5 km/h 7.4 km/h 84% 0 mm 0.00 W/m2
19:29 -5.1 °C -7.4 °C 1028.3 hPa ENE 5.5 km/h 5.5 km/h 84% 0 mm 0.00 W/m2
19:34 -5.2 °C -7.3 °C 1028.3 hPa ENE 5.5 km/h 5.5 km/h 85% 0 mm 0.00 W/m2
19:39 -5.1 °C -7 °C 1028.3 hPa ENE 3.7 km/h 7.4 km/h 86% 0 mm 0.00 W/m2
19:44 -4.7 °C -6.7 °C 1028 hPa ESE 5.5 km/h 9.3 km/h 86% 0 mm 0.00 W/m2
19:49 -4.4 °C -6.6 °C 1028 hPa ESE 3.7 km/h 9.3 km/h 85% 0 mm 0.00 W/m2
19:54 -4.7 °C -6.8 °C 1027.7 hPa ESE 5.5 km/h 9.3 km/h 85% 0 mm 0.00 W/m2
19:59 -4.8 °C -6.9 °C 1027.7 hPa ESE 5.5 km/h 7.4 km/h 85% 0 mm 0.00 W/m2
20:05 -4.8 °C -6.9 °C 1027.7 hPa ESE 5.5 km/h 7.4 km/h 85% 0 mm 0.00 W/m2
20:10 -4.7 °C -6.8 °C 1028 hPa SE 7.4 km/h 11.1 km/h 85% 0 mm 0.00 W/m2
20:15 -4.7 °C -6.8 °C 1028 hPa SE 5.5 km/h 9.3 km/h 85% 0 mm 0.00 W/m2
20:21 -4.7 °C -6.8 °C 1027.7 hPa ESE 3.7 km/h 7.4 km/h 85% 0 mm 0.00 W/m2
20:26 -4.8 °C -6.9 °C 1027.7 hPa ESE 5.5 km/h 7.4 km/h 85% 0 mm 0.00 W/m2
20:31 -4.8 °C -6.8 °C 1027.7 hPa ESE 7.4 km/h 9.3 km/h 86% 0 mm 0.00 W/m2
20:36 -4.8 °C -6.8 °C 1027.7 hPa SE 7.4 km/h 7.4 km/h 86% 0 mm 0.00 W/m2
20:41 -4.8 °C -6.8 °C 1027.7 hPa SE 7.4 km/h 9.3 km/h 86% 0 mm 0.00 W/m2
20:46 -4.8 °C -6.8 °C 1027.7 hPa SE 7.4 km/h 11.1 km/h 86% 0 mm 0.00 W/m2
20:51 -4.4 °C -6.3 °C 1027.3 hPa SSE 3.7 km/h 9.3 km/h 87% 0 mm 0.00 W/m2
20:56 -4.2 °C -6.1 °C 1027.3 hPa SE 9.3 km/h 14.8 km/h 87% 0 mm 0.00 W/m2
21:01 -4.1 °C -6.1 °C 1027.3 hPa SE 7.4 km/h 11.1 km/h 86% 0 mm 0.00 W/m2
21:06 -4.1 °C -6.1 °C 1027.3 hPa SSE 7.4 km/h 9.3 km/h 86% 0 mm 0.00 W/m2
21:11 -4.2 °C -6.2 °C 1027.3 hPa SSE 3.7 km/h 5.5 km/h 86% 0 mm 0.00 W/m2
21:17 -4.2 °C -6.1 °C 1027.3 hPa SE 7.4 km/h 9.3 km/h 87% 0 mm 0.00 W/m2
21:22 -4.2 °C -6.1 °C 1027.3 hPa SE 3.7 km/h 9.3 km/h 87% 0 mm 0.00 W/m2
21:27 -4.3 °C -6.2 °C 1027.3 hPa SE 5.5 km/h 9.3 km/h 87% 0 mm 0.00 W/m2
21:32 -4.5 °C -6.3 °C 1027.3 hPa SE 3.7 km/h 3.7 km/h 87% 0 mm 0.00 W/m2
21:37 -4.7 °C -6.5 °C 1027.3 hPa SE 3.7 km/h 3.7 km/h 87% 0 mm 0.00 W/m2
21:42 -4.8 °C -6.5 °C 1027.3 hPa SE 3.7 km/h 5.5 km/h 88% 0 mm 0.00 W/m2
21:47 -4.9 °C -6.6 °C 1027 hPa SE 7.4 km/h 7.4 km/h 88% 0 mm 0.00 W/m2
21:52 -5.1 °C -6.7 °C 1027 hPa SE 3.7 km/h 5.5 km/h 88% 0 mm 0.00 W/m2
21:57 -5.1 °C -6.6 °C 1027 hPa SE 3.7 km/h 5.5 km/h 89% 0 mm 0.00 W/m2
22:02 -5.2 °C -6.7 °C 1027 hPa SE 7.4 km/h 7.4 km/h 89% 0 mm 0.00 W/m2
22:07 -5.3 °C -6.8 °C 1026.6 hPa SE 5.5 km/h 7.4 km/h 89% 0 mm 0.00 W/m2
22:13 -5.3 °C -6.8 °C 1026.6 hPa SSE 7.4 km/h 9.3 km/h 89% 0 mm 0.00 W/m2
22:18 -5.1 °C -6.5 °C 1026.6 hPa SSE 3.7 km/h 7.4 km/h 90% 0 mm 0.00 W/m2
22:23 -4.9 °C -6.3 °C 1026.6 hPa SSE 5.5 km/h 9.3 km/h 90% 0 mm 0.00 W/m2
22:28 -4.8 °C -6.2 °C 1026.3 hPa SSE 9.3 km/h 13 km/h 90% 0 mm 0.00 W/m2
22:33 -4.4 °C -5.6 °C 1026.6 hPa SSE 7.4 km/h 9.3 km/h 91% 0 mm 0.00 W/m2
22:38 -4.2 °C -5.4 °C 1026.6 hPa SSE 3.7 km/h 9.3 km/h 91% 0 mm 0.00 W/m2
22:43 -4.2 °C -5.4 °C 1026.3 hPa South 5.5 km/h 9.3 km/h 91% 0 mm 0.00 W/m2
22:48 -4.1 °C -5.3 °C 1026.3 hPa SSE 5.5 km/h 11.1 km/h 91% 0 mm 0.00 W/m2
22:53 -4 °C -5.3 °C 1026.3 hPa South 7.4 km/h 7.4 km/h 91% 0 mm 0.00 W/m2
22:58 -3.7 °C -5 °C 1026.3 hPa South 9.3 km/h 11.1 km/h 91% 0 mm 0.00 W/m2
23:03 -3.6 °C -4.9 °C 1026.3 hPa South 7.4 km/h 11.1 km/h 91% 0 mm 0.00 W/m2
23:08 -3.4 °C -4.7 °C 1026.3 hPa South 9.3 km/h 11.1 km/h 91% 0 mm 0.00 W/m2
23:13 -3.2 °C -4.5 °C 1026.3 hPa South 13 km/h 13 km/h 91% 0 mm 0.00 W/m2
23:19 -3.1 °C -4.2 °C 1026 hPa South 11.1 km/h 13 km/h 92% 0 mm 0.00 W/m2
23:24 -3 °C -4.3 °C 1026 hPa SSW 3.7 km/h 13 km/h 91% 0 mm 0.00 W/m2
23:29 -2.8 °C -3.9 °C 1026 hPa South 5.5 km/h 11.1 km/h 92% 0 mm 0.00 W/m2
23:34 -2.8 °C -4.1 °C 1026 hPa South 5.5 km/h 11.1 km/h 91% 0 mm 0.00 W/m2
23:39 -2.7 °C -4 °C 1026 hPa South 5.5 km/h 13 km/h 91% 0 mm 0.00 W/m2
23:44 -2.6 °C -3.9 °C 1026 hPa South 13 km/h 13 km/h 91% 0 mm 0.00 W/m2
23:49 -2.6 °C -3.8 °C 1025.6 hPa South 13 km/h 14.8 km/h 91% 0 mm 0.00 W/m2
23:54 -2.3 °C -3.4 °C 1026 hPa South 3.7 km/h 13 km/h 92% 0 mm 0.00 W/m2
23:59 -2.3 °C -3.6 °C 1026 hPa South 9.3 km/h 11.1 km/h 91% 0 mm 0.00 W/m2
Juneau County Weather
Compliments of Weather Underground - 4 mb